sensor_id;sensor_type;location;lat;lon;timestamp;pressure;altitude;pressure_sealevel;temperature;humidity
35910;BME280;22004;49.120;-0.200;2023-07-24T00:01:17;100429.19;;;18.43;85.39
35910;BME280;22004;49.120;-0.200;2023-07-24T00:03:43;100424.03;;;18.29;85.74
35910;BME280;22004;49.120;-0.200;2023-07-24T00:06:09;100415.91;;;18.18;86.69
35910;BME280;22004;49.120;-0.200;2023-07-24T00:08:34;100423.50;;;18.56;84.29
35910;BME280;22004;49.120;-0.200;2023-07-24T00:10:59;100413.00;;;18.48;84.60
35910;BME280;22004;49.120;-0.200;2023-07-24T00:13:25;100406.28;;;18.39;85.18
35910;BME280;22004;49.120;-0.200;2023-07-24T00:15:51;100406.63;;;18.42;84.83
35910;BME280;22004;49.120;-0.200;2023-07-24T00:18:16;100403.38;;;18.17;85.37
35910;BME280;22004;49.120;-0.200;2023-07-24T00:20:41;100401.44;;;18.41;84.60
35910;BME280;22004;49.120;-0.200;2023-07-24T00:23:07;100394.91;;;18.53;83.88
35910;BME280;22004;49.120;-0.200;2023-07-24T00:25:32;100396.53;;;18.54;83.36
35910;BME280;22004;49.120;-0.200;2023-07-24T00:27:58;100391.81;;;18.62;82.85
35910;BME280;22004;49.120;-0.200;2023-07-24T00:30:23;100395.91;;;18.64;82.80
35910;BME280;22004;49.120;-0.200;2023-07-24T00:32:48;100390.97;;;18.61;82.85
35910;BME280;22004;49.120;-0.200;2023-07-24T00:35:13;100390.97;;;18.61;82.84
35910;BME280;22004;49.120;-0.200;2023-07-24T00:37:39;100395.00;;;18.58;82.95
35910;BME280;22004;49.120;-0.200;2023-07-24T00:40:05;100389.91;;;18.62;82.50
35910;BME280;22004;49.120;-0.200;2023-07-24T00:42:30;100387.03;;;18.40;83.95
35910;BME280;22004;49.120;-0.200;2023-07-24T00:44:56;100391.72;;;18.56;82.94
35910;BME280;22004;49.120;-0.200;2023-07-24T00:47:22;100395.97;;;18.52;82.85
35910;BME280;22004;49.120;-0.200;2023-07-24T00:49:48;100393.09;;;18.59;82.63
35910;BME280;22004;49.120;-0.200;2023-07-24T00:52:14;100387.75;;;18.64;81.98
35910;BME280;22004;49.120;-0.200;2023-07-24T00:54:40;100394.44;;;18.56;82.78
35910;BME280;22004;49.120;-0.200;2023-07-24T00:57:07;100384.63;;;18.55;82.85
35910;BME280;22004;49.120;-0.200;2023-07-24T00:59:33;100395.03;;;18.06;84.92
35910;BME280;22004;49.120;-0.200;2023-07-24T01:01:58;100397.00;;;18.23;84.93
35910;BME280;22004;49.120;-0.200;2023-07-24T01:04:24;100393.69;;;18.21;84.73
35910;BME280;22004;49.120;-0.200;2023-07-24T01:06:49;100386.59;;;17.49;87.53
35910;BME280;22004;49.120;-0.200;2023-07-24T01:09:14;100392.69;;;17.87;86.89
35910;BME280;22004;49.120;-0.200;2023-07-24T01:11:56;100385.66;;;18.14;85.23
35910;BME280;22004;49.120;-0.200;2023-07-24T01:14:29;100385.03;;;18.24;84.61
35910;BME280;22004;49.120;-0.200;2023-07-24T01:16:58;100391.59;;;17.99;85.70
35910;BME280;22004;49.120;-0.200;2023-07-24T01:21:59;100377.63;;;18.19;84.18
35910;BME280;22004;49.120;-0.200;2023-07-24T01:24:30;100385.28;;;18.22;84.28
35910;BME280;22004;49.120;-0.200;2023-07-24T01:26:58;100388.47;;;18.19;84.24
35910;BME280;22004;49.120;-0.200;2023-07-24T01:29:23;100388.38;;;18.26;83.94
35910;BME280;22004;49.120;-0.200;2023-07-24T01:31:49;100393.56;;;18.27;83.79
35910;BME280;22004;49.120;-0.200;2023-07-24T01:34:14;100398.03;;;18.33;83.55
35910;BME280;22004;49.120;-0.200;2023-07-24T01:36:40;100399.97;;;18.21;83.67
35910;BME280;22004;49.120;-0.200;2023-07-24T01:39:05;100393.94;;;18.07;84.35
35910;BME280;22004;49.120;-0.200;2023-07-24T01:41:31;100390.47;;;18.24;83.84
35910;BME280;22004;49.120;-0.200;2023-07-24T01:43:59;100389.31;;;18.20;83.61
35910;BME280;22004;49.120;-0.200;2023-07-24T01:46:24;100393.19;;;18.24;83.59
35910;BME280;22004;49.120;-0.200;2023-07-24T01:48:49;100394.84;;;18.25;83.31
35910;BME280;22004;49.120;-0.200;2023-07-24T01:51:15;100378.56;;;18.13;83.89
35910;BME280;22004;49.120;-0.200;2023-07-24T01:53:40;100386.59;;;18.20;83.63
35910;BME280;22004;49.120;-0.200;2023-07-24T01:56:05;100388.38;;;18.26;82.95
35910;BME280;22004;49.120;-0.200;2023-07-24T01:58:31;100385.28;;;18.22;83.30
35910;BME280;22004;49.120;-0.200;2023-07-24T02:00:56;100390.16;;;18.20;83.48
35910;BME280;22004;49.120;-0.200;2023-07-24T02:03:21;100382.06;;;18.37;82.64
35910;BME280;22004;49.120;-0.200;2023-07-24T02:05:50;100387.50;;;18.37;82.40
35910;BME280;22004;49.120;-0.200;2023-07-24T02:08:16;100380.53;;;18.29;82.82
35910;BME280;22004;49.120;-0.200;2023-07-24T02:10:41;100387.09;;;18.05;83.48
35910;BME280;22004;49.120;-0.200;2023-07-24T02:13:06;100395.94;;;18.12;83.24
35910;BME280;22004;49.120;-0.200;2023-07-24T02:15:32;100389.53;;;18.30;82.78
35910;BME280;22004;49.120;-0.200;2023-07-24T02:17:58;100390.28;;;18.14;83.64
35910;BME280;22004;49.120;-0.200;2023-07-24T02:20:23;100396.28;;;18.27;82.89
35910;BME280;22004;49.120;-0.200;2023-07-24T02:22:48;100391.19;;;18.31;82.54
35910;BME280;22004;49.120;-0.200;2023-07-24T02:25:14;100397.03;;;18.11;83.12
35910;BME280;22004;49.120;-0.200;2023-07-24T02:27:39;100395.34;;;18.22;82.93
35910;BME280;22004;49.120;-0.200;2023-07-24T02:30:05;100395.34;;;18.22;83.06
35910;BME280;22004;49.120;-0.200;2023-07-24T02:32:30;100393.31;;;18.29;82.80
35910;BME280;22004;49.120;-0.200;2023-07-24T02:34:57;100385.91;;;18.13;83.03
35910;BME280;22004;49.120;-0.200;2023-07-24T02:37:22;100384.16;;;18.06;83.37
35910;BME280;22004;49.120;-0.200;2023-07-24T02:39:48;100386.25;;;18.16;83.01
35910;BME280;22004;49.120;-0.200;2023-07-24T02:42:13;100383.25;;;18.29;82.54
35910;BME280;22004;49.120;-0.200;2023-07-24T02:44:38;100386.22;;;18.28;82.41
35910;BME280;22004;49.120;-0.200;2023-07-24T02:47:04;100381.75;;;18.22;82.53
35910;BME280;22004;49.120;-0.200;2023-07-24T02:49:29;100374.94;;;17.84;83.93
35910;BME280;22004;49.120;-0.200;2023-07-24T02:51:55;100375.81;;;18.25;82.81
35910;BME280;22004;49.120;-0.200;2023-07-24T02:54:20;100366.63;;;18.14;82.89
35910;BME280;22004;49.120;-0.200;2023-07-24T02:56:45;100372.78;;;18.21;82.61
35910;BME280;22004;49.120;-0.200;2023-07-24T02:59:11;100370.06;;;18.21;82.60
35910;BME280;22004;49.120;-0.200;2023-07-24T03:01:36;100371.13;;;18.20;82.59
35910;BME280;22004;49.120;-0.200;2023-07-24T03:04:02;100363.47;;;18.17;82.76
35910;BME280;22004;49.120;-0.200;2023-07-24T03:06:27;100357.19;;;18.17;82.78
35910;BME280;22004;49.120;-0.200;2023-07-24T03:08:52;100359.00;;;18.11;83.14
35910;BME280;22004;49.120;-0.200;2023-07-24T03:11:18;100363.81;;;18.21;82.79
35910;BME280;22004;49.120;-0.200;2023-07-24T03:13:43;100361.91;;;18.21;82.73
35910;BME280;22004;49.120;-0.200;2023-07-24T03:16:09;100356.22;;;18.23;82.63
35910;BME280;22004;49.120;-0.200;2023-07-24T03:18:34;100360.28;;;18.20;82.80
35910;BME280;22004;49.120;-0.200;2023-07-24T03:20:59;100351.88;;;18.22;82.53
35910;BME280;22004;49.120;-0.200;2023-07-24T03:23:25;100352.84;;;18.04;83.60
35910;BME280;22004;49.120;-0.200;2023-07-24T03:25:50;100367.34;;;18.09;83.38
35910;BME280;22004;49.120;-0.200;2023-07-24T03:28:16;100363.25;;;18.07;83.37
35910;BME280;22004;49.120;-0.200;2023-07-24T03:30:41;100350.59;;;18.13;83.13
35910;BME280;22004;49.120;-0.200;2023-07-24T03:33:06;100366.06;;;18.12;83.04
35910;BME280;22004;49.120;-0.200;2023-07-24T03:35:32;100358.16;;;18.11;83.14
35910;BME280;22004;49.120;-0.200;2023-07-24T03:37:57;100352.59;;;18.17;82.97
35910;BME280;22004;49.120;-0.200;2023-07-24T03:40:23;100349.06;;;18.17;82.76
35910;BME280;22004;49.120;-0.200;2023-07-24T03:42:48;100349.53;;;18.14;82.81
35910;BME280;22004;49.120;-0.200;2023-07-24T03:45:13;100348.44;;;18.15;82.92
35910;BME280;22004;49.120;-0.200;2023-07-24T03:47:39;100352.72;;;18.11;83.05
35910;BME280;22004;49.120;-0.200;2023-07-24T03:50:04;100347.75;;;18.07;83.12
35910;BME280;22004;49.120;-0.200;2023-07-24T03:52:30;100352.72;;;18.11;83.31
35910;BME280;22004;49.120;-0.200;2023-07-24T03:54:55;100353.56;;;18.11;82.94
35910;BME280;22004;49.120;-0.200;2023-07-24T03:57:20;100357.81;;;18.07;83.13
35910;BME280;22004;49.120;-0.200;2023-07-24T03:59:46;100349.31;;;18.03;83.50
35910;BME280;22004;49.120;-0.200;2023-07-24T04:02:11;100354.72;;;18.03;83.25
35910;BME280;22004;49.120;-0.200;2023-07-24T04:04:37;100355.22;;;17.89;83.71
35910;BME280;22004;49.120;-0.200;2023-07-24T04:07:03;100353.44;;;17.94;84.13
35910;BME280;22004;49.120;-0.200;2023-07-24T04:09:29;100353.78;;;18.09;83.08
35910;BME280;22004;49.120;-0.200;2023-07-24T04:11:54;100353.84;;;17.86;83.73
35910;BME280;22004;49.120;-0.200;2023-07-24T04:14:20;100358.28;;;18.04;83.20
35910;BME280;22004;49.120;-0.200;2023-07-24T04:16:45;100356.50;;;18.09;83.20
35910;BME280;22004;49.120;-0.200;2023-07-24T04:19:11;100353.84;;;17.86;83.84
35910;BME280;22004;49.120;-0.200;2023-07-24T04:21:36;100350.13;;;17.69;85.43
35910;BME280;22004;49.120;-0.200;2023-07-24T04:24:01;100347.91;;;17.89;83.94
35910;BME280;22004;49.120;-0.200;2023-07-24T04:26:27;100358.28;;;18.04;83.57
35910;BME280;22004;49.120;-0.200;2023-07-24T04:28:52;100351.81;;;17.81;84.35
35910;BME280;22004;49.120;-0.200;2023-07-24T04:31:17;100342.34;;;18.07;83.48
35910;BME280;22004;49.120;-0.200;2023-07-24T04:33:43;100338.53;;;18.08;83.17
35910;BME280;22004;49.120;-0.200;2023-07-24T04:36:08;100332.03;;;18.09;83.03
35910;BME280;22004;49.120;-0.200;2023-07-24T04:38:33;100351.56;;;18.06;83.17
35910;BME280;22004;49.120;-0.200;2023-07-24T04:41:01;100355.34;;;18.05;83.12
35910;BME280;22004;49.120;-0.200;2023-07-24T04:43:28;100347.63;;;18.14;82.79
35910;BME280;22004;49.120;-0.200;2023-07-24T04:45:53;100345.72;;;18.15;82.66
35910;BME280;22004;49.120;-0.200;2023-07-24T04:48:19;100344.34;;;18.12;82.87
35910;BME280;22004;49.120;-0.200;2023-07-24T04:50:44;100349.91;;;18.05;82.93
35910;BME280;22004;49.120;-0.200;2023-07-24T04:53:09;100344.34;;;18.12;82.92
35910;BME280;22004;49.120;-0.200;2023-07-24T04:55:34;100343.75;;;18.10;83.04
35910;BME280;22004;49.120;-0.200;2023-07-24T04:58:00;100351.78;;;18.05;83.14
35910;BME280;22004;49.120;-0.200;2023-07-24T05:00:25;100366.66;;;18.02;83.34
35910;BME280;22004;49.120;-0.200;2023-07-24T05:02:51;100363.50;;;18.05;83.03
35910;BME280;22004;49.120;-0.200;2023-07-24T05:05:17;100351.56;;;17.95;83.38
35910;BME280;22004;49.120;-0.200;2023-07-24T05:07:42;100352.47;;;18.12;82.79
35910;BME280;22004;49.120;-0.200;2023-07-24T05:10:07;100347.41;;;18.04;83.22
35910;BME280;22004;49.120;-0.200;2023-07-24T05:12:33;100361.13;;;17.97;83.32
35910;BME280;22004;49.120;-0.200;2023-07-24T05:14:58;100361.50;;;18.01;83.19
35910;BME280;22004;49.120;-0.200;2023-07-24T05:17:23;100372.31;;;18.13;82.85
35910;BME280;22004;49.120;-0.200;2023-07-24T05:19:49;100369.31;;;17.86;83.37
35910;BME280;22004;49.120;-0.200;2023-07-24T05:22:14;100372.00;;;17.97;83.43
35910;BME280;22004;49.120;-0.200;2023-07-24T05:24:40;100371.75;;;17.99;83.38
35910;BME280;22004;49.120;-0.200;2023-07-24T05:27:05;100375.66;;;17.91;83.42
35910;BME280;22004;49.120;-0.200;2023-07-24T05:29:31;100368.59;;;17.90;83.37
35910;BME280;22004;49.120;-0.200;2023-07-24T05:31:56;100364.88;;;18.08;83.02
35910;BME280;22004;49.120;-0.200;2023-07-24T05:34:22;100373.44;;;17.76;84.20
35910;BME280;22004;49.120;-0.200;2023-07-24T05:36:48;100376.38;;;17.87;84.15
35910;BME280;22004;49.120;-0.200;2023-07-24T05:39:13;100369.16;;;17.92;83.01
35910;BME280;22004;49.120;-0.200;2023-07-24T05:41:38;100375.66;;;18.03;83.25
35910;BME280;22004;49.120;-0.200;2023-07-24T05:44:04;100372.91;;;18.15;82.38
35910;BME280;22004;49.120;-0.200;2023-07-24T05:46:29;100369.28;;;17.97;83.48
35910;BME280;22004;49.120;-0.200;2023-07-24T05:48:54;100375.00;;;18.24;82.66
35910;BME280;22004;49.120;-0.200;2023-07-24T05:51:21;100371.53;;;17.77;83.51
35910;BME280;22004;49.120;-0.200;2023-07-24T05:53:47;100371.38;;;17.60;84.72
35910;BME280;22004;49.120;-0.200;2023-07-24T05:56:12;100371.25;;;17.43;85.03
35910;BME280;22004;49.120;-0.200;2023-07-24T05:58:37;100372.44;;;17.59;84.71
35910;BME280;22004;49.120;-0.200;2023-07-24T06:01:03;100372.56;;;17.52;85.07
35910;BME280;22004;49.120;-0.200;2023-07-24T06:03:28;100366.44;;;17.92;83.88
35910;BME280;22004;49.120;-0.200;2023-07-24T06:05:54;100375.53;;;17.74;83.63
35910;BME280;22004;49.120;-0.200;2023-07-24T06:08:20;100364.59;;;17.81;84.49
35910;BME280;22004;49.120;-0.200;2023-07-24T06:10:47;100376.00;;;17.71;84.40
35910;BME280;22004;49.120;-0.200;2023-07-24T06:13:13;100367.03;;;17.36;85.61
35910;BME280;22004;49.120;-0.200;2023-07-24T06:15:39;100365.94;;;17.60;84.99
35910;BME280;22004;49.120;-0.200;2023-07-24T06:18:04;100358.59;;;17.14;85.64
35910;BME280;22004;49.120;-0.200;2023-07-24T06:20:30;100370.06;;;16.86;86.38
35910;BME280;22004;49.120;-0.200;2023-07-24T06:22:55;100373.56;;;17.04;87.12
35910;BME280;22004;49.120;-0.200;2023-07-24T06:25:20;100371.38;;;17.37;86.21
35910;BME280;22004;49.120;-0.200;2023-07-24T06:27:46;100377.00;;;17.12;86.71
35910;BME280;22004;49.120;-0.200;2023-07-24T06:30:11;100376.94;;;17.53;85.50
35910;BME280;22004;49.120;-0.200;2023-07-24T06:32:36;100379.16;;;17.33;85.63
35910;BME280;22004;49.120;-0.200;2023-07-24T06:35:02;100384.22;;;17.29;85.39
35910;BME280;22004;49.120;-0.200;2023-07-24T06:37:27;100384.44;;;17.16;85.16
35910;BME280;22004;49.120;-0.200;2023-07-24T06:39:52;100379.28;;;17.26;84.57
35910;BME280;22004;49.120;-0.200;2023-07-24T06:42:18;100376.44;;;17.33;86.01
35910;BME280;22004;49.120;-0.200;2023-07-24T06:44:43;100381.91;;;17.68;84.17
35910;BME280;22004;49.120;-0.200;2023-07-24T06:47:08;100391.81;;;16.97;86.43
35910;BME280;22004;49.120;-0.200;2023-07-24T06:49:34;100380.25;;;17.55;84.75
35910;BME280;22004;49.120;-0.200;2023-07-24T06:51:59;100382.47;;;17.58;84.45
35910;BME280;22004;49.120;-0.200;2023-07-24T06:54:24;100390.78;;;17.75;85.15
35910;BME280;22004;49.120;-0.200;2023-07-24T06:56:50;100388.72;;;17.59;86.13
35910;BME280;22004;49.120;-0.200;2023-07-24T06:59:15;100391.47;;;17.71;85.26
35910;BME280;22004;49.120;-0.200;2023-07-24T07:01:40;100398.84;;;18.34;82.92
35910;BME280;22004;49.120;-0.200;2023-07-24T07:04:05;100397.06;;;18.40;82.08
35910;BME280;22004;49.120;-0.200;2023-07-24T07:06:31;100398.34;;;17.97;83.90
35910;BME280;22004;49.120;-0.200;2023-07-24T07:08:56;100399.50;;;18.13;84.01
35910;BME280;22004;49.120;-0.200;2023-07-24T07:11:22;100401.34;;;17.65;84.38
35910;BME280;22004;49.120;-0.200;2023-07-24T07:13:47;100397.13;;;18.04;83.66
35910;BME280;22004;49.120;-0.200;2023-07-24T07:16:12;100401.97;;;17.67;84.26
35910;BME280;22004;49.120;-0.200;2023-07-24T07:18:37;100400.44;;;17.71;84.97
35910;BME280;22004;49.120;-0.200;2023-07-24T07:21:03;100404.88;;;18.24;84.53
35910;BME280;22004;49.120;-0.200;2023-07-24T07:23:29;100397.72;;;18.06;84.42
35910;BME280;22004;49.120;-0.200;2023-07-24T07:25:54;100405.81;;;18.42;83.35
35910;BME280;22004;49.120;-0.200;2023-07-24T07:28:19;100406.75;;;18.47;82.77
35910;BME280;22004;49.120;-0.200;2023-07-24T07:30:45;100402.06;;;18.59;83.00
35910;BME280;22004;49.120;-0.200;2023-07-24T07:33:10;100402.84;;;18.55;83.35
35910;BME280;22004;49.120;-0.200;2023-07-24T07:35:36;100410.53;;;18.34;81.29
35910;BME280;22004;49.120;-0.200;2023-07-24T07:38:02;100410.72;;;18.97;79.74
35910;BME280;22004;49.120;-0.200;2023-07-24T07:40:28;100400.28;;;20.28;75.93
35910;BME280;22004;49.120;-0.200;2023-07-24T07:42:54;100406.28;;;20.08;76.83
35910;BME280;22004;49.120;-0.200;2023-07-24T07:45:20;100410.03;;;19.52;77.07
35910;BME280;22004;49.120;-0.200;2023-07-24T07:47:45;100409.28;;;19.56;76.94
35910;BME280;22004;49.120;-0.200;2023-07-24T07:50:10;100405.69;;;19.51;78.09
35910;BME280;22004;49.120;-0.200;2023-07-24T07:52:36;100409.81;;;20.70;75.50
35910;BME280;22004;49.120;-0.200;2023-07-24T07:55:02;100408.25;;;21.60;71.82
35910;BME280;22004;49.120;-0.200;2023-07-24T07:57:27;100408.56;;;19.95;72.26
35910;BME280;22004;49.120;-0.200;2023-07-24T07:59:53;100408.28;;;19.29;76.42
35910;BME280;22004;49.120;-0.200;2023-07-24T08:02:18;100401.78;;;19.30;77.25
35910;BME280;22004;49.120;-0.200;2023-07-24T08:04:43;100394.75;;;19.34;76.63
35910;BME280;22004;49.120;-0.200;2023-07-24T08:07:09;100398.22;;;18.84;77.29
35910;BME280;22004;49.120;-0.200;2023-07-24T08:09:34;100400.56;;;18.92;78.21
35910;BME280;22004;49.120;-0.200;2023-07-24T08:12:01;100405.56;;;18.55;78.47
35910;BME280;22004;49.120;-0.200;2023-07-24T08:14:26;100391.13;;;18.95;78.72
35910;BME280;22004;49.120;-0.200;2023-07-24T08:16:51;100392.34;;;20.05;76.81
35910;BME280;22004;49.120;-0.200;2023-07-24T08:19:18;100391.09;;;21.05;70.09
35910;BME280;22004;49.120;-0.200;2023-07-24T08:21:43;100395.09;;;22.47;70.46
35910;BME280;22004;49.120;-0.200;2023-07-24T08:24:08;100397.81;;;21.94;69.03
35910;BME280;22004;49.120;-0.200;2023-07-24T08:26:34;100396.72;;;20.28;72.86
35910;BME280;22004;49.120;-0.200;2023-07-24T08:28:59;100395.41;;;20.30;73.22
35910;BME280;22004;49.120;-0.200;2023-07-24T08:31:24;100394.44;;;20.63;73.28
35910;BME280;22004;49.120;-0.200;2023-07-24T08:33:50;100387.94;;;20.91;71.73
35910;BME280;22004;49.120;-0.200;2023-07-24T08:36:15;100393.94;;;21.85;69.14
35910;BME280;22004;49.120;-0.200;2023-07-24T08:38:40;100395.16;;;22.04;67.04
35910;BME280;22004;49.120;-0.200;2023-07-24T08:41:11;100397.56;;;20.72;73.08
35910;BME280;22004;49.120;-0.200;2023-07-24T08:43:38;100385.41;;;20.14;73.12
35910;BME280;22004;49.120;-0.200;2023-07-24T08:46:05;100392.16;;;20.11;74.30
35910;BME280;22004;49.120;-0.200;2023-07-24T08:48:38;100390.66;;;20.64;73.12
35910;BME280;22004;49.120;-0.200;2023-07-24T08:51:05;100399.47;;;21.95;69.66
35910;BME280;22004;49.120;-0.200;2023-07-24T08:53:33;100390.44;;;22.52;66.60
35910;BME280;22004;49.120;-0.200;2023-07-24T08:56:02;100393.97;;;21.53;67.71
35910;BME280;22004;49.120;-0.200;2023-07-24T08:58:27;100401.63;;;20.97;69.21
35910;BME280;22004;49.120;-0.200;2023-07-24T09:00:53;100399.72;;;20.26;69.97
35910;BME280;22004;49.120;-0.200;2023-07-24T09:03:18;100399.84;;;20.58;71.42
35910;BME280;22004;49.120;-0.200;2023-07-24T09:05:44;100390.59;;;20.16;71.38
35910;BME280;22004;49.120;-0.200;2023-07-24T09:08:10;100395.63;;;19.85;71.03
35910;BME280;22004;49.120;-0.200;2023-07-24T09:10:35;100408.63;;;20.00;72.95
35910;BME280;22004;49.120;-0.200;2023-07-24T09:13:00;100395.53;;;20.40;72.73
35910;BME280;22004;49.120;-0.200;2023-07-24T09:15:29;100396.28;;;20.36;70.58
35910;BME280;22004;49.120;-0.200;2023-07-24T09:17:54;100400.44;;;20.87;71.08
35910;BME280;22004;49.120;-0.200;2023-07-24T09:20:20;100396.00;;;21.67;68.04
35910;BME280;22004;49.120;-0.200;2023-07-24T09:22:53;100399.56;;;20.38;71.38
35910;BME280;22004;49.120;-0.200;2023-07-24T09:25:30;100390.31;;;20.83;71.12
35910;BME280;22004;49.120;-0.200;2023-07-24T09:27:57;100399.22;;;19.91;72.76
35910;BME280;22004;49.120;-0.200;2023-07-24T09:30:23;100395.88;;;20.93;70.85
35910;BME280;22004;49.120;-0.200;2023-07-24T09:32:53;100397.00;;;22.46;66.24
35910;BME280;22004;49.120;-0.200;2023-07-24T09:35:19;100390.09;;;21.44;68.09
35910;BME280;22004;49.120;-0.200;2023-07-24T09:37:46;100397.09;;;21.07;69.41
35910;BME280;22004;49.120;-0.200;2023-07-24T09:40:14;100397.66;;;22.11;67.33
35910;BME280;22004;49.120;-0.200;2023-07-24T09:42:40;100403.06;;;21.58;67.41
35910;BME280;22004;49.120;-0.200;2023-07-24T09:45:06;100397.31;;;21.60;66.97
35910;BME280;22004;49.120;-0.200;2023-07-24T09:47:34;100400.91;;;22.65;64.44
35910;BME280;22004;49.120;-0.200;2023-07-24T09:50:00;100398.72;;;22.67;66.50
35910;BME280;22004;49.120;-0.200;2023-07-24T09:52:29;100405.63;;;22.17;68.30
35910;BME280;22004;49.120;-0.200;2023-07-24T09:54:55;100401.88;;;22.34;65.15
35910;BME280;22004;49.120;-0.200;2023-07-24T09:57:25;100403.00;;;21.90;67.03
35910;BME280;22004;49.120;-0.200;2023-07-24T09:59:52;100407.94;;;22.46;68.74
35910;BME280;22004;49.120;-0.200;2023-07-24T10:02:18;100412.91;;;22.07;67.04
35910;BME280;22004;49.120;-0.200;2023-07-24T10:04:45;100412.50;;;22.25;66.65
35910;BME280;22004;49.120;-0.200;2023-07-24T10:07:13;100406.91;;;21.67;66.58
35910;BME280;22004;49.120;-0.200;2023-07-24T10:09:39;100412.63;;;22.51;67.22
35910;BME280;22004;49.120;-0.200;2023-07-24T10:12:05;100414.00;;;22.53;66.54
35910;BME280;22004;49.120;-0.200;2023-07-24T10:14:30;100409.06;;;22.50;65.50
35910;BME280;22004;49.120;-0.200;2023-07-24T10:16:56;100406.84;;;22.42;66.60
35910;BME280;22004;49.120;-0.200;2023-07-24T10:19:22;100398.19;;;22.70;65.41
35910;BME280;22004;49.120;-0.200;2023-07-24T10:21:48;100401.63;;;22.40;65.47
35910;BME280;22004;49.120;-0.200;2023-07-24T10:24:15;100405.38;;;22.97;64.25
35910;BME280;22004;49.120;-0.200;2023-07-24T10:26:40;100414.72;;;23.21;64.62
35910;BME280;22004;49.120;-0.200;2023-07-24T10:29:06;100409.53;;;23.30;62.80
35910;BME280;22004;49.120;-0.200;2023-07-24T10:31:32;100418.03;;;23.39;62.54
35910;BME280;22004;49.120;-0.200;2023-07-24T10:34:06;100421.84;;;22.34;63.88
35910;BME280;22004;49.120;-0.200;2023-07-24T10:36:35;100416.06;;;22.26;63.31
35910;BME280;22004;49.120;-0.200;2023-07-24T10:39:01;100418.81;;;22.99;64.24
35910;BME280;22004;49.120;-0.200;2023-07-24T10:41:37;100420.50;;;23.20;61.83
35910;BME280;22004;49.120;-0.200;2023-07-24T10:44:03;100420.34;;;22.69;64.26
35910;BME280;22004;49.120;-0.200;2023-07-24T10:46:40;100426.78;;;22.37;63.75
35910;BME280;22004;49.120;-0.200;2023-07-24T10:49:07;100430.59;;;22.36;63.64
35910;BME280;22004;49.120;-0.200;2023-07-24T10:51:33;100423.09;;;22.69;63.33
35910;BME280;22004;49.120;-0.200;2023-07-24T10:54:02;100423.41;;;22.78;63.55
35910;BME280;22004;49.120;-0.200;2023-07-24T10:56:27;100424.97;;;22.58;61.29
35910;BME280;22004;49.120;-0.200;2023-07-24T10:58:53;100419.47;;;22.48;61.52
35910;BME280;22004;49.120;-0.200;2023-07-24T11:01:18;100419.28;;;22.85;62.35
35910;BME280;22004;49.120;-0.200;2023-07-24T11:03:44;100418.84;;;23.19;63.55
35910;BME280;22004;49.120;-0.200;2023-07-24T11:06:20;100424.03;;;23.15;61.67
35910;BME280;22004;49.120;-0.200;2023-07-24T11:08:58;100424.25;;;22.21;62.75
35910;BME280;22004;49.120;-0.200;2023-07-24T11:11:32;100420.84;;;22.61;62.70
35910;BME280;22004;49.120;-0.200;2023-07-24T11:13:58;100423.81;;;22.44;64.47
35910;BME280;22004;49.120;-0.200;2023-07-24T11:16:23;100433.59;;;22.30;62.94
35910;BME280;22004;49.120;-0.200;2023-07-24T11:18:50;100430.41;;;22.06;63.60
35910;BME280;22004;49.120;-0.200;2023-07-24T11:21:17;100436.59;;;22.28;65.03
35910;BME280;22004;49.120;-0.200;2023-07-24T11:23:50;100429.00;;;21.98;63.65
35910;BME280;22004;49.120;-0.200;2023-07-24T11:26:18;100437.44;;;22.34;63.60
35910;BME280;22004;49.120;-0.200;2023-07-24T11:28:44;100444.56;;;22.40;63.62
35910;BME280;22004;49.120;-0.200;2023-07-24T11:31:09;100438.47;;;22.28;62.25
35910;BME280;22004;49.120;-0.200;2023-07-24T11:33:36;100425.47;;;22.50;64.21
35910;BME280;22004;49.120;-0.200;2023-07-24T11:36:01;100431.53;;;22.62;62.68
35910;BME280;22004;49.120;-0.200;2023-07-24T11:38:27;100427.94;;;22.04;61.40
35910;BME280;22004;49.120;-0.200;2023-07-24T11:40:54;100425.41;;;21.92;62.02
35910;BME280;22004;49.120;-0.200;2023-07-24T11:43:22;100430.00;;;21.87;61.76
35910;BME280;22004;49.120;-0.200;2023-07-24T11:45:48;100435.56;;;22.39;60.64
35910;BME280;22004;49.120;-0.200;2023-07-24T11:48:17;100433.13;;;22.43;63.28
35910;BME280;22004;49.120;-0.200;2023-07-24T11:50:53;100435.97;;;22.74;63.27
35910;BME280;22004;49.120;-0.200;2023-07-24T11:53:26;100438.34;;;22.07;61.41
35910;BME280;22004;49.120;-0.200;2023-07-24T11:55:53;100435.53;;;21.97;63.94
35910;BME280;22004;49.120;-0.200;2023-07-24T11:58:20;100435.75;;;21.85;65.85
35910;BME280;22004;49.120;-0.200;2023-07-24T12:00:46;100445.56;;;21.81;65.71
35910;BME280;22004;49.120;-0.200;2023-07-24T12:03:13;100441.56;;;21.62;65.74
35910;BME280;22004;49.120;-0.200;2023-07-24T12:05:42;100440.19;;;21.97;67.01
35910;BME280;22004;49.120;-0.200;2023-07-24T12:08:08;100445.69;;;22.44;64.72
35910;BME280;22004;49.120;-0.200;2023-07-24T12:10:38;100441.66;;;22.62;65.16
35910;BME280;22004;49.120;-0.200;2023-07-24T12:13:05;100443.47;;;22.41;61.55
35910;BME280;22004;49.120;-0.200;2023-07-24T12:15:30;100442.03;;;22.23;64.03
35910;BME280;22004;49.120;-0.200;2023-07-24T12:17:56;100436.28;;;21.87;64.59
35910;BME280;22004;49.120;-0.200;2023-07-24T12:20:22;100439.34;;;21.91;66.77
35910;BME280;22004;49.120;-0.200;2023-07-24T12:22:48;100441.00;;;21.97;66.91
35910;BME280;22004;49.120;-0.200;2023-07-24T12:25:13;100432.72;;;21.82;64.24
35910;BME280;22004;49.120;-0.200;2023-07-24T12:27:39;100438.19;;;22.19;64.67
35910;BME280;22004;49.120;-0.200;2023-07-24T12:30:06;100437.75;;;22.42;63.39
35910;BME280;22004;49.120;-0.200;2023-07-24T12:32:32;100431.97;;;23.22;60.97
35910;BME280;22004;49.120;-0.200;2023-07-24T12:34:57;100434.47;;;23.18;64.57
35910;BME280;22004;49.120;-0.200;2023-07-24T12:37:22;100444.00;;;22.33;65.61